گرگان, ایران

02:17 PM IRDT on اوت 01, 2014 (GMT +0430)
Gorgan (OING) Elev -23 ft | 36.91 °N, 54.40 °E | Change Station

Current weather conditions updated 17 minutes ago

Partly Cloudy
ابرهاى پراكنده
91 °F
Feels Like 95 °F
N
0
باد متغير باد from شمال

Today is forecast to be Warmer than yesterday.

امروز
High -- | Low -- °F
--% Chance of Precip.
دیروز
High -- | Low -- °F
Precip. -- در
5:57 AM 7:59 PM
Waxing Crescent, 25% visible
فشار 29.80 در
ديد 6.2 مايل، ميل (در برابر كيلومتر
ابری Few 3000 ft
شاخص گرما 95 °F
قطره شبنم 68 °F
رطوبت 46%
بارش باران 0.00 در
برف عمیق Not available.
مادون قرمز 9 out of 12
Pollen Not available.
تمیزی هوا Not available.
Flu Activity Not available.
METAR OING 010930Z 00000KT 9999 FEW030 33/20 Q1009

More Conditions Fewer Conditions

فشار 29.80 در
ديد 6.2 مايل، ميل (در برابر كيلومتر
ابری Few 3000 ft
شاخص گرما 95 °F
قطره شبنم 68 °F
رطوبت 46%
بارش باران 0.00 در
برف عمیق Not available.
مادون قرمز 9 out of 12
Pollen Not available.
تمیزی هوا Not available.
Flu Activity Not available.
METAR OING 010930Z 00000KT 9999 FEW030 33/20 Q1009

More Conditions Fewer Conditions

10-Day Weather Forecast

Almanac

ستاره شناسی

Aug. 01, 2014 Rise Set
وقت حقیقی 5:57 AM IRDT 7:59 PM IRDT
تاریک و روشن اجتماعی 5:28 AM IRDT 8:28 PM IRDT
تاریک روشن دریایی 4:53 AM IRDT 9:02 PM IRDT
شفق و فلق نجومی 4:16 AM IRDT 9:40 PM IRDT
ماه 10:49 AM IRDT 10:40 PM IRDT
میزان روشنایی روز 14h 59m
طول روز
14h 02m
Tomorrow will be 1m 46s shorter.
Waxing Crescent, 25% of the Moon is Illuminated
امروز
Waxing Crescent
Aug 3
ربع اول
Aug 10
ماه کامل
Aug 17
ربع آخر
Aug 25
New

Yesterday's Extremes

Country Highs Country Lows

Community

WunderPhotos

Upload Photos

1,739,530 photos uploaded!

Nearby

تمیزی هوا

Not available.

عمق برف

Not available.

Earthquake Activity

شهر Distance Mag. Time & Date
No recent earthquake activity has been reported nearby.
Minimum magnitude displayed is 2.5.

Coastal Water Temperatures

منطقه درجه حرارت
No Stations Reporting

Nearby Weather Stations

There are no personal weather stations in this area.